createdAt,value
2018-04-02T00:00:53.792Z,70.42
2018-04-02T00:01:59.542Z,70.30
2018-04-02T00:03:06.052Z,70.15
2018-04-02T00:04:11.816Z,70.06
2018-04-02T00:05:17.552Z,70.05
2018-04-02T00:06:23.321Z,70.06
2018-04-02T00:07:29.846Z,69.98
2018-04-02T00:08:35.602Z,69.89
2018-04-02T00:09:41.353Z,69.79
2018-04-02T00:10:47.870Z,69.68
2018-04-02T00:11:53.397Z,69.57
2018-04-02T00:12:59.157Z,69.53
2018-04-02T00:14:04.678Z,69.38
2018-04-02T00:15:10.441Z,69.30
2018-04-02T00:16:16.188Z,69.22
2018-04-02T00:17:21.965Z,69.22
2018-04-02T00:18:28.481Z,69.06
2018-04-02T00:19:34.232Z,68.92
2018-04-02T00:20:39.983Z,68.87
2018-04-02T00:21:45.740Z,68.74
2018-04-02T00:22:51.537Z,68.77
2018-04-02T00:23:56.974Z,68.75
2018-04-02T00:25:02.931Z,68.80
2018-04-02T00:26:08.673Z,68.87
2018-04-02T00:27:14.422Z,68.83
2018-04-02T00:28:23.950Z,68.80
2018-04-02T00:29:29.689Z,68.66
2018-04-02T00:30:35.437Z,68.68
2018-04-02T00:31:41.192Z,68.72
2018-04-02T00:32:47.725Z,68.82
2018-04-02T00:33:53.496Z,68.91
2018-04-02T00:34:59.255Z,69.02
2018-04-02T00:36:05.759Z,69.17
2018-04-02T00:37:11.517Z,69.20
2018-04-02T00:38:17.262Z,69.40
2018-04-02T00:39:22.812Z,69.42
2018-04-02T00:40:28.564Z,69.56
2018-04-02T00:41:34.851Z,69.62
2018-04-02T00:42:40.596Z,69.76
2018-04-02T00:43:46.375Z,69.81
2018-04-02T00:44:52.152Z,69.94
2018-04-02T00:45:58.669Z,70.10
2018-04-02T00:47:04.416Z,70.30
2018-04-02T00:48:10.166Z,70.38
2018-04-02T00:49:16.692Z,70.37
2018-04-02T00:50:22.448Z,70.34
2018-04-02T00:51:28.460Z,70.38
2018-04-02T00:52:34.252Z,70.54
2018-04-02T00:53:40.018Z,70.69
2018-04-02T00:54:46.539Z,70.70
2018-04-02T00:55:52.312Z,70.82
2018-04-02T00:56:58.064Z,70.89
2018-04-02T00:58:04.591Z,70.81
2018-04-02T00:59:10.345Z,70.90
2018-04-02T01:00:16.096Z,70.87
2018-04-02T01:01:21.640Z,70.94
2018-04-02T01:02:28.889Z,70.97
2018-04-02T01:03:34.641Z,71.03
2018-04-02T01:04:40.406Z,71.18
2018-04-02T01:05:46.686Z,71.26
2018-04-02T01:06:52.481Z,71.19
2018-04-02T01:07:58.236Z,71.32
2018-04-02T01:09:03.959Z,71.22
2018-04-02T01:10:09.702Z,71.20
2018-04-02T01:11:15.456Z,71.16
2018-04-02T01:12:22.723Z,71.19
2018-04-02T01:13:28.479Z,71.31
2018-04-02T01:14:35.006Z,71.47
2018-04-02T01:15:40.752Z,71.32
2018-04-02T01:16:46.501Z,71.47
2018-04-02T01:17:52.263Z,71.43
2018-04-02T01:18:59.055Z,71.47
2018-04-02T01:20:05.242Z,71.44
2018-04-02T01:21:10.985Z,71.46
2018-04-02T01:22:16.723Z,71.47
2018-04-02T01:23:22.633Z,71.69
2018-04-02T01:24:29.138Z,71.67
2018-04-02T01:25:34.890Z,71.71
2018-04-02T01:26:40.637Z,71.68
2018-04-02T01:27:47.889Z,71.67
2018-04-02T01:28:53.653Z,71.71
2018-04-02T01:30:00.248Z,71.72
2018-04-02T01:31:06.549Z,71.76
2018-04-02T01:32:12.305Z,71.74
2018-04-02T01:33:18.044Z,71.74
2018-04-02T01:34:23.813Z,71.72
2018-04-02T01:35:29.560Z,71.70
2018-04-02T01:36:36.064Z,71.73
2018-04-02T01:37:41.816Z,71.88
2018-04-02T01:38:47.556Z,71.85
2018-04-02T01:39:53.326Z,71.79
2018-04-02T01:41:00.587Z,71.84
2018-04-02T01:42:06.341Z,71.83
2018-04-02T01:43:12.097Z,72.05
2018-04-02T01:44:18.612Z,72.19
2018-04-02T01:45:24.377Z,72.36
2018-04-02T01:46:29.916Z,72.38
2018-04-02T01:47:35.669Z,72.36
2018-04-02T01:48:42.176Z,72.48
2018-04-02T01:49:47.927Z,72.54
2018-04-02T01:50:53.718Z,72.56
2018-04-02T01:52:00.232Z,72.48
2018-04-02T01:53:05.984Z,72.43
2018-04-02T01:54:11.737Z,72.41
2018-04-02T01:55:18.260Z,72.44
2018-04-02T01:56:24.034Z,72.44
2018-04-02T01:57:29.782Z,72.42
2018-04-02T01:58:35.542Z,72.39
2018-04-02T01:59:42.092Z,72.49
2018-04-02T02:00:48.615Z,72.43
2018-04-02T02:01:54.390Z,72.41
2018-04-02T02:02:59.913Z,72.37
2018-04-02T02:04:05.660Z,72.50
2018-04-02T02:05:11.413Z,72.55
2018-04-02T02:06:17.720Z,72.55
2018-04-02T02:07:23.685Z,72.50
2018-04-02T02:08:30.100Z,72.49
2018-04-02T02:09:35.858Z,72.50
2018-04-02T02:10:41.617Z,72.46
2018-04-02T02:11:47.369Z,72.54
2018-04-02T02:12:53.150Z,72.54
2018-04-02T02:13:59.677Z,72.56
2018-04-02T02:15:05.104Z,72.49
2018-04-02T02:16:10.524Z,72.46
2018-04-02T02:17:16.268Z,72.46
2018-04-02T02:18:22.032Z,72.45
2018-04-02T02:19:27.780Z,72.45
2018-04-02T02:20:33.298Z,72.44
2018-04-02T02:21:39.042Z,72.45
2018-04-02T02:22:44.565Z,72.48
2018-04-02T02:23:50.388Z,72.46
2018-04-02T02:24:56.300Z,72.45
2018-04-02T02:26:02.805Z,72.45
2018-04-02T02:27:08.548Z,72.45
2018-04-02T02:28:14.293Z,72.43
2018-04-02T02:29:20.069Z,72.43
2018-04-02T02:30:25.829Z,72.45
2018-04-02T02:31:32.343Z,72.45
2018-04-02T02:32:38.121Z,72.43
2018-04-02T02:33:43.859Z,72.43
2018-04-02T02:34:49.637Z,72.44
2018-04-02T02:35:55.394Z,72.47
2018-04-02T02:37:01.133Z,72.48
2018-04-02T02:38:06.884Z,72.50
2018-04-02T02:39:12.634Z,72.52
2018-04-02T02:40:18.404Z,72.54
2018-04-02T02:41:24.934Z,72.57
2018-04-02T02:42:30.670Z,72.72
2018-04-02T02:43:36.439Z,72.69
2018-04-02T02:44:41.953Z,72.85
2018-04-02T02:45:47.722Z,72.84
2018-04-02T02:46:53.238Z,72.99
2018-04-02T02:47:58.742Z,72.96
2018-04-02T02:49:04.485Z,72.92
2018-04-02T02:50:10.238Z,72.93
2018-04-02T02:51:16.000Z,72.95
2018-04-02T02:52:21.750Z,72.95
2018-04-02T02:53:27.502Z,72.98
2018-04-02T02:54:33.254Z,72.99
2018-04-02T02:55:38.993Z,72.98
2018-04-02T02:56:44.766Z,73.05
2018-04-02T02:57:50.514Z,73.09
2018-04-02T02:58:56.253Z,73.15
2018-04-02T03:00:02.004Z,73.20
2018-04-02T03:01:07.932Z,73.31
2018-04-02T03:02:13.927Z,73.27
2018-04-02T03:03:19.869Z,73.27
2018-04-02T03:04:25.622Z,73.35
2018-04-02T03:05:31.573Z,73.33
2018-04-02T03:06:37.312Z,73.41
2018-04-02T03:07:43.853Z,73.46
2018-04-02T03:08:49.608Z,73.60
2018-04-02T03:09:55.371Z,73.74
2018-04-02T03:11:01.887Z,73.75
2018-04-02T03:12:07.629Z,73.81
2018-04-02T03:13:13.398Z,73.79
2018-04-02T03:14:19.682Z,73.84
2018-04-02T03:15:25.423Z,73.80
2018-04-02T03:16:31.175Z,73.82
2018-04-02T03:17:36.918Z,73.79
2018-04-02T03:18:42.709Z,73.78
2018-04-02T03:19:48.455Z,73.93
2018-04-02T03:20:54.991Z,74.07
2018-04-02T03:22:00.736Z,74.22
2018-04-02T03:23:06.489Z,74.15
2018-04-02T03:24:12.256Z,74.24
2018-04-02T03:25:18.771Z,74.20
2018-04-02T03:26:24.521Z,74.39
2018-04-02T03:27:30.265Z,74.37
2018-04-02T03:28:36.013Z,74.59
2018-04-02T03:29:41.776Z,74.55
2018-04-02T03:30:48.286Z,74.55
2018-04-02T03:31:54.047Z,74.60
2018-04-02T03:32:59.792Z,74.62
2018-04-02T03:34:05.537Z,74.49
2018-04-02T03:35:11.300Z,74.46
2018-04-02T03:36:17.822Z,74.57
2018-04-02T03:37:23.562Z,74.65
2018-04-02T03:38:29.308Z,74.70
2018-04-02T03:39:35.110Z,74.92
2018-04-02T03:40:40.880Z,75.04
2018-04-02T03:41:46.624Z,75.04
2018-04-02T03:42:52.391Z,75.18
2018-04-02T03:43:58.906Z,75.25
2018-04-02T03:45:04.658Z,75.45
2018-04-02T03:46:10.426Z,75.45
2018-04-02T03:47:16.168Z,75.58
2018-04-02T03:48:21.918Z,75.65
2018-04-02T03:49:27.910Z,75.79
2018-04-02T03:50:33.656Z,75.75
2018-04-02T03:51:39.436Z,75.84
2018-04-02T03:52:45.182Z,75.92
2018-04-02T03:53:50.974Z,75.89
2018-04-02T03:54:56.715Z,75.79
2018-04-02T03:56:02.464Z,75.83
2018-04-02T03:57:08.245Z,75.89
2018-04-02T03:58:14.002Z,75.94
2018-04-02T03:59:19.760Z,76.07
2018-04-02T04:00:26.294Z,76.27
2018-04-02T04:01:33.550Z,76.33
2018-04-02T04:02:39.328Z,76.40
2018-04-02T04:03:45.860Z,76.51
2018-04-02T04:04:51.596Z,76.46
2018-04-02T04:05:57.349Z,76.26
2018-04-02T04:07:03.100Z,76.31
2018-04-02T04:08:08.881Z,76.17
2018-04-02T04:09:14.660Z,76.16
2018-04-02T04:10:20.413Z,76.19
2018-04-02T04:11:26.160Z,76.09
2018-04-02T04:12:31.916Z,76.13
2018-04-02T04:13:37.689Z,76.24
2018-04-02T04:14:43.439Z,76.50
2018-04-02T04:15:49.184Z,76.64
2018-04-02T04:16:54.937Z,76.65
2018-04-02T04:18:00.716Z,76.67
2018-04-02T04:19:06.484Z,76.71
2018-04-02T04:20:13.023Z,76.74
2018-04-02T04:21:18.773Z,76.76
2018-04-02T04:22:25.284Z,76.63
2018-04-02T04:23:31.037Z,76.68
2018-04-02T04:24:36.812Z,76.83
2018-04-02T04:25:43.335Z,76.84
2018-04-02T04:26:48.522Z,76.74
2018-04-02T04:27:54.273Z,76.83
2018-04-02T04:29:00.017Z,76.78
2018-04-02T04:30:05.795Z,76.83
2018-04-02T04:31:11.615Z,76.94
2018-04-02T04:32:17.130Z,76.86
2018-04-02T04:33:22.882Z,77.03
2018-04-02T04:34:28.634Z,77.24
2018-04-02T04:35:34.420Z,77.44
2018-04-02T04:36:40.169Z,77.48
2018-04-02T04:37:46.692Z,77.58
2018-04-02T04:38:52.448Z,77.64
2018-04-02T04:39:58.213Z,77.71
2018-04-02T04:41:04.085Z,77.81
2018-04-02T04:42:10.053Z,77.85
2018-04-02T04:43:15.824Z,77.85
2018-04-02T04:44:21.572Z,77.89
2018-04-02T04:45:27.404Z,77.87
2018-04-02T04:46:33.181Z,77.88
2018-04-02T04:47:39.711Z,77.80
2018-04-02T04:48:45.455Z,77.69
2018-04-02T04:49:52.933Z,77.55
2018-04-02T04:50:58.692Z,77.40
2018-04-02T04:52:04.462Z,77.26
2018-04-02T04:53:09.980Z,77.08
2018-04-02T04:54:16.512Z,76.94
2018-04-02T04:55:22.260Z,76.78
2018-04-02T04:56:28.016Z,76.62
2018-04-02T04:57:34.328Z,76.49
2018-04-02T04:58:40.079Z,76.29
2018-04-02T04:59:45.821Z,76.11
2018-04-02T05:00:51.590Z,75.92
2018-04-02T05:01:58.849Z,75.74
2018-04-02T05:03:04.624Z,75.60
2018-04-02T05:04:11.137Z,75.44
2018-04-02T05:05:16.670Z,75.29
2018-04-02T05:06:22.415Z,75.16
2018-04-02T05:07:28.172Z,75.00
2018-04-02T05:08:34.713Z,74.95
2018-04-02T05:09:40.492Z,74.84
2018-04-02T05:10:46.422Z,74.72
2018-04-02T05:11:51.970Z,74.56
2018-04-02T05:12:57.727Z,74.44
2018-04-02T05:14:04.292Z,74.29
2018-04-02T05:15:10.807Z,74.14
2018-04-02T05:16:16.563Z,74.00
2018-04-02T05:17:22.317Z,73.89
2018-04-02T05:18:28.506Z,73.75
2018-04-02T05:19:35.045Z,73.64
2018-04-02T05:20:41.567Z,73.51
2018-04-02T05:21:47.084Z,73.35
2018-04-02T05:22:52.854Z,73.22
2018-04-02T05:23:58.780Z,73.12
2018-04-02T05:25:04.552Z,72.96
2018-04-02T05:26:10.302Z,72.85
2018-04-02T05:27:16.817Z,72.77
2018-04-02T05:28:22.565Z,72.70
2018-04-02T05:29:28.331Z,72.62
2018-04-02T05:30:34.856Z,72.48
2018-04-02T05:31:40.608Z,72.35
2018-04-02T05:32:46.354Z,72.16
2018-04-02T05:33:52.092Z,72.04
2018-04-02T05:34:57.841Z,71.89
2018-04-02T05:36:03.608Z,71.86
2018-04-02T05:37:10.132Z,71.81
2018-04-02T05:38:15.874Z,71.72
2018-04-02T05:39:21.616Z,71.61
2018-04-02T05:40:27.368Z,71.50
2018-04-02T05:41:33.136Z,71.45
2018-04-02T05:42:39.684Z,71.35
2018-04-02T05:43:46.919Z,71.26
2018-04-02T05:44:52.672Z,71.19
2018-04-02T05:45:58.481Z,71.11
2018-04-02T05:47:04.259Z,71.01
2018-04-02T05:48:10.022Z,70.97
2018-04-02T05:49:15.776Z,70.89
2018-04-02T05:50:22.292Z,70.81
2018-04-02T05:51:28.047Z,70.72
2018-04-02T05:52:33.841Z,70.62
2018-04-02T05:53:40.349Z,70.56
2018-04-02T05:54:46.096Z,70.48
2018-04-02T05:55:51.845Z,70.41
2018-04-02T05:56:57.600Z,70.29
2018-04-02T05:58:03.917Z,70.23
2018-04-02T05:59:09.931Z,70.22
2018-04-02T06:00:15.685Z,70.18
2018-04-02T06:01:21.732Z,70.07
2018-04-02T06:02:27.487Z,69.95
2018-04-02T06:03:33.277Z,69.81
2018-04-02T06:04:39.032Z,69.70
2018-04-02T06:05:45.545Z,69.63
2018-04-02T06:06:51.321Z,69.58
2018-04-02T06:07:57.834Z,69.53
2018-04-02T06:09:03.136Z,69.47
2018-04-02T06:10:08.889Z,69.44
2018-04-02T06:11:14.436Z,69.38
2018-04-02T06:12:20.175Z,69.29
2018-04-02T06:13:25.929Z,69.21
2018-04-02T06:14:31.389Z,69.18
2018-04-02T06:15:37.132Z,69.13
2018-04-02T06:16:42.916Z,69.04
2018-04-02T06:17:49.606Z,68.96
2018-04-02T06:18:55.358Z,68.91
2018-04-02T06:20:01.128Z,68.85
2018-04-02T06:21:06.875Z,68.77
2018-04-02T06:22:12.620Z,68.64
2018-04-02T06:23:19.142Z,68.54
2018-04-02T06:24:25.014Z,68.48
2018-04-02T06:25:30.811Z,68.44
2018-04-02T06:26:36.564Z,68.40
2018-04-02T06:27:42.308Z,68.34
2018-04-02T06:28:48.061Z,68.28
2018-04-02T06:29:53.812Z,68.19
2018-04-02T06:30:59.585Z,68.15
2018-04-02T06:32:06.115Z,68.13
2018-04-02T06:33:13.368Z,67.90
2018-04-02T06:34:19.121Z,67.71
2018-04-02T06:35:24.873Z,67.58
2018-04-02T06:36:31.427Z,67.49
2018-04-02T06:37:37.176Z,67.51
2018-04-02T06:38:42.931Z,67.49
2018-04-02T06:39:49.444Z,67.44
2018-04-02T06:40:55.188Z,67.41
2018-04-02T06:42:00.964Z,67.35
2018-04-02T06:43:06.749Z,67.33
2018-04-02T06:44:12.790Z,67.29
2018-04-02T06:45:18.537Z,67.21
2018-04-02T06:46:25.505Z,67.16
2018-04-02T06:47:31.068Z,67.10
2018-04-02T06:48:36.816Z,66.99
2018-04-02T06:49:42.555Z,66.90
2018-04-02T06:50:48.297Z,66.77
2018-04-02T06:51:54.049Z,66.74
2018-04-02T06:52:59.816Z,66.66
2018-04-02T06:54:06.206Z,66.56
2018-04-02T06:55:11.952Z,66.54
2018-04-02T06:56:17.717Z,66.50
2018-04-02T06:57:23.467Z,66.41
2018-04-02T06:58:29.032Z,66.42
2018-04-02T06:59:35.539Z,66.40
2018-04-02T07:00:41.072Z,66.33
2018-04-02T07:01:46.830Z,66.25
2018-04-02T07:02:52.581Z,66.19
2018-04-02T07:03:58.360Z,66.15
2018-04-02T07:05:04.637Z,66.08
2018-04-02T07:06:10.394Z,66.01
2018-04-02T07:07:16.380Z,66.02
2018-04-02T07:08:23.629Z,66.08
2018-04-02T07:09:29.421Z,66.13
2018-04-02T07:10:35.930Z,66.17
2018-04-02T07:11:41.680Z,66.56
2018-04-02T07:12:47.445Z,66.54
2018-04-02T07:13:53.952Z,66.46
2018-04-02T07:14:59.729Z,66.35
2018-04-02T07:16:05.141Z,66.23
2018-04-02T07:17:10.885Z,66.10
2018-04-02T07:18:16.624Z,66.10
2018-04-02T07:19:22.385Z,66.06
2018-04-02T07:20:28.149Z,66.01
2018-04-02T07:21:33.996Z,66.00
2018-04-02T07:22:39.571Z,65.99
2018-04-02T07:23:45.342Z,65.96
2018-04-02T07:24:51.098Z,66.04
2018-04-02T07:25:56.870Z,65.98
2018-04-02T07:27:03.388Z,65.90
2018-04-02T07:28:08.919Z,65.84
2018-04-02T07:29:14.684Z,65.87
2018-04-02T07:30:20.428Z,65.94
2018-04-02T07:31:26.964Z,65.97
2018-04-02T07:32:32.720Z,65.98
2018-04-02T07:33:38.456Z,65.97
2018-04-02T07:34:44.216Z,65.87
2018-04-02T07:35:49.972Z,65.78
2018-04-02T07:36:56.506Z,65.70
2018-04-02T07:38:02.268Z,65.59
2018-04-02T07:39:07.135Z,65.44
2018-04-02T07:40:12.879Z,65.29
2018-04-02T07:41:18.628Z,65.17
2018-04-02T07:42:24.388Z,65.06
2018-04-02T07:43:30.137Z,65.01
2018-04-02T07:44:35.975Z,64.95
2018-04-02T07:45:41.770Z,64.87
2018-04-02T07:46:47.517Z,64.83
2018-04-02T07:47:53.061Z,64.73
2018-04-02T07:48:58.591Z,64.58
2018-04-02T07:50:04.460Z,64.64
2018-04-02T07:51:10.208Z,64.64
2018-04-02T07:52:15.972Z,64.66
2018-04-02T07:53:21.512Z,64.64
2018-04-02T07:54:27.256Z,64.65
2018-04-02T07:55:33.774Z,64.64
2018-04-02T07:56:39.518Z,64.63
2018-04-02T07:57:45.276Z,64.61
2018-04-02T07:58:51.824Z,64.69
2018-04-02T07:59:57.579Z,64.82
2018-04-02T08:01:03.334Z,64.98
2018-04-02T08:02:09.131Z,65.00
2018-04-02T08:03:14.907Z,65.14
2018-04-02T08:04:20.732Z,65.13
2018-04-02T08:05:27.414Z,65.10
2018-04-02T08:06:33.931Z,65.04
2018-04-02T08:07:40.277Z,64.95
2018-04-02T08:08:46.027Z,64.83
2018-04-02T08:09:51.809Z,64.73
2018-04-02T08:10:57.564Z,64.66
2018-04-02T08:12:03.319Z,64.50
2018-04-02T08:13:09.844Z,64.25
2018-04-02T08:14:15.713Z,63.89
2018-04-02T08:15:21.493Z,63.43
2018-04-02T08:16:28.017Z,62.92
2018-04-02T08:17:33.584Z,62.50
2018-04-02T08:18:39.337Z,61.98
2018-04-02T08:19:44.861Z,61.65
2018-04-02T08:20:50.388Z,61.17
2018-04-02T08:21:56.140Z,60.64
2018-04-02T08:23:01.681Z,60.00
2018-04-02T08:24:07.556Z,59.17
2018-04-02T08:25:13.325Z,58.00
2018-04-02T08:26:20.394Z,56.76
2018-04-02T08:27:26.995Z,55.02
2018-04-02T08:28:32.797Z,53.89
2018-04-02T08:29:38.882Z,52.95
2018-04-02T08:30:44.830Z,51.42
2018-04-02T08:31:50.846Z,49.06
2018-04-02T08:32:57.514Z,48.19
2018-04-02T08:34:04.205Z,47.31
2018-04-02T08:35:10.251Z,46.75
2018-04-02T08:36:16.293Z,46.00
2018-04-02T08:37:23.287Z,44.61
2018-04-02T08:38:29.162Z,44.12
2018-04-02T08:39:34.921Z,43.13
2018-04-02T08:40:40.462Z,42.17
2018-04-02T08:41:47.029Z,41.46
2018-04-02T08:42:54.024Z,40.55
2018-04-02T08:43:59.865Z,40.04
2018-04-02T08:45:05.681Z,38.90
2018-04-02T08:46:11.506Z,38.42
2018-04-02T08:47:17.297Z,37.04
2018-04-02T08:48:23.074Z,37.01
2018-04-02T08:49:28.893Z,36.71
2018-04-02T08:50:34.664Z,36.38
2018-04-02T08:51:40.438Z,35.97
2018-04-02T08:52:46.959Z,35.28
2018-04-02T08:53:52.752Z,34.32
2018-04-02T08:54:59.269Z,34.18
2018-04-02T08:56:05.043Z,34.13
2018-04-02T08:57:10.475Z,33.89
2018-04-02T08:58:17.017Z,33.70
2018-04-02T08:59:22.578Z,33.38
2018-04-02T09:00:29.108Z,33.27
2018-04-02T09:01:34.643Z,33.01
2018-04-02T09:02:40.417Z,32.81
2018-04-02T09:03:47.047Z,32.65
2018-04-02T09:04:52.833Z,32.45
2018-04-02T09:05:58.603Z,31.97
2018-04-02T09:07:04.403Z,31.83
2018-04-02T09:08:10.342Z,31.76
2018-04-02T09:09:16.928Z,31.68
2018-04-02T09:10:22.716Z,31.60
2018-04-02T09:11:28.527Z,31.26
2018-04-02T09:12:34.365Z,31.23
2018-04-02T09:13:40.232Z,31.17
2018-04-02T09:14:46.005Z,30.96
2018-04-02T09:15:52.579Z,30.63
2018-04-02T09:16:59.102Z,30.47
2018-04-02T09:18:04.881Z,30.53
2018-04-02T09:19:11.486Z,30.65
2018-04-02T09:20:17.232Z,30.62
2018-04-02T09:21:23.027Z,30.36
2018-04-02T09:22:29.322Z,30.03
2018-04-02T09:23:35.715Z,29.94
2018-04-02T09:24:41.239Z,30.13
2018-04-02T09:25:47.001Z,30.30
2018-04-02T09:26:52.574Z,30.36
2018-04-02T09:27:58.272Z,30.12
2018-04-02T09:29:05.592Z,30.04
2018-04-02T09:30:11.372Z,30.11
2018-04-02T09:31:16.722Z,30.69
2018-04-02T09:32:22.520Z,30.89
2018-04-02T09:33:28.080Z,31.24
2018-04-02T09:34:33.621Z,31.30
2018-04-02T09:35:39.360Z,31.12
2018-04-02T09:36:45.135Z,31.12
2018-04-02T09:37:50.911Z,31.63
2018-04-02T09:38:56.739Z,31.93
2018-04-02T09:40:03.255Z,32.37
2018-04-02T09:41:08.692Z,32.59
2018-04-02T09:42:14.455Z,32.58
2018-04-02T09:43:20.241Z,32.51
2018-04-02T09:44:26.003Z,32.03
2018-04-02T09:45:31.796Z,31.73
2018-04-02T09:46:37.311Z,31.46
2018-04-02T09:47:43.089Z,31.33
2018-04-02T09:48:48.901Z,31.76
2018-04-02T09:49:54.657Z,32.24
2018-04-02T09:51:01.440Z,32.46
2018-04-02T09:52:07.401Z,32.96
2018-04-02T09:53:13.312Z,33.70
2018-04-02T09:54:20.105Z,33.90
2018-04-02T09:55:26.043Z,34.02
2018-04-02T09:56:31.800Z,34.00
2018-04-02T09:57:37.558Z,34.06
2018-04-02T09:58:43.348Z,33.63
2018-04-02T09:59:49.167Z,33.77
2018-04-02T10:01:00.290Z,34.32
2018-04-02T10:02:11.509Z,34.38
2018-04-02T10:03:17.038Z,34.33
2018-04-02T10:04:37.484Z,34.63
2018-04-02T10:05:44.719Z,35.24
2018-04-02T10:06:51.242Z,35.91
2018-04-02T10:07:57.004Z,36.25
2018-04-02T10:09:03.296Z,36.53
2018-04-02T10:10:09.106Z,36.99
2018-04-02T10:11:15.103Z,37.63
2018-04-02T10:12:20.867Z,37.99
2018-04-02T10:13:26.621Z,38.39
2018-04-02T10:14:33.148Z,38.44
2018-04-02T10:15:38.933Z,38.59
2018-04-02T10:16:44.940Z,39.02
2018-04-02T10:17:50.766Z,39.44
2018-04-02T10:18:56.551Z,39.87
2018-04-02T10:20:02.089Z,40.29
2018-04-02T10:21:07.854Z,40.61
2018-04-02T10:22:14.416Z,41.17
2018-04-02T10:23:20.952Z,41.62
2018-04-02T10:24:27.501Z,41.66
2018-04-02T10:25:33.269Z,42.03
2018-04-02T10:26:39.864Z,42.39
2018-04-02T10:27:45.648Z,42.58
2018-04-02T10:28:51.401Z,42.95
2018-04-02T10:29:57.482Z,42.86
2018-04-02T10:31:04.104Z,42.63
2018-04-02T10:32:10.111Z,42.55
2018-04-02T10:33:16.837Z,42.47
2018-04-02T10:34:22.593Z,42.55
2018-04-02T10:35:29.141Z,42.58
2018-04-02T10:36:34.900Z,42.34
2018-04-02T10:37:41.429Z,42.00
2018-04-02T10:38:47.213Z,41.80
2018-04-02T10:39:52.968Z,41.68
2018-04-02T10:40:58.732Z,41.29
2018-04-02T10:42:04.497Z,40.67
2018-04-02T10:43:10.265Z,40.21
2018-04-02T10:44:16.595Z,39.89
2018-04-02T10:45:23.131Z,39.75
2018-04-02T10:46:28.923Z,39.54
2018-04-02T10:47:35.397Z,39.76
2018-04-02T10:48:41.205Z,39.92
2018-04-02T10:49:46.932Z,39.93
2018-04-02T10:50:52.704Z,39.68
2018-04-02T10:51:59.242Z,39.36
2018-04-02T10:53:04.997Z,39.21
2018-04-02T10:54:11.538Z,39.14
2018-04-02T10:55:18.863Z,39.35
2018-04-02T10:56:24.659Z,39.84
2018-04-02T10:57:30.856Z,40.07
2018-04-02T10:58:36.621Z,39.04
2018-04-02T10:59:42.446Z,38.96
2018-04-02T11:00:48.394Z,39.03
2018-04-02T11:01:54.146Z,39.16
2018-04-02T11:02:59.921Z,39.36
2018-04-02T11:04:05.685Z,39.71
2018-04-02T11:05:12.466Z,39.97
2018-04-02T11:06:19.145Z,40.08
2018-04-02T11:07:25.160Z,40.18
2018-04-02T11:08:31.137Z,40.20
2018-04-02T11:09:37.390Z,40.32
2018-04-02T11:10:43.434Z,40.44
2018-04-02T11:11:49.272Z,40.56
2018-04-02T11:12:55.070Z,40.26
2018-04-02T11:14:01.770Z,40.43
2018-04-02T11:15:07.719Z,40.56
2018-04-02T11:16:13.477Z,40.75
2018-04-02T11:17:19.279Z,40.47
2018-04-02T11:18:25.207Z,40.46
2018-04-02T11:19:31.197Z,40.55
2018-04-02T11:20:36.952Z,40.63
2018-04-02T11:21:42.828Z,40.68
2018-04-02T11:22:48.828Z,40.88
2018-04-02T11:23:54.787Z,40.93
2018-04-02T11:25:01.074Z,41.15
2018-04-02T11:26:06.694Z,41.32
2018-04-02T11:27:12.463Z,41.48
2018-04-02T11:28:18.249Z,41.56
2018-04-02T11:29:24.827Z,41.34
2018-04-02T11:30:30.624Z,41.41
2018-04-02T11:31:36.385Z,41.46
2018-04-02T11:32:42.911Z,40.84
2018-04-02T11:33:48.695Z,40.55
2018-04-02T11:34:54.458Z,40.22
2018-04-02T11:36:00.220Z,39.87
2018-04-02T11:37:06.405Z,40.00
2018-04-02T11:38:11.924Z,39.75
2018-04-02T11:39:17.907Z,39.24
2018-04-02T11:40:24.461Z,38.75
2018-04-02T11:41:30.994Z,38.57
2018-04-02T11:42:36.772Z,38.27
2018-04-02T11:43:42.772Z,37.71
2018-04-02T11:44:49.802Z,37.42
2018-04-02T11:45:55.561Z,37.20
2018-04-02T11:47:01.324Z,36.96
2018-04-02T11:48:07.143Z,37.22
2018-04-02T11:49:13.840Z,37.36
2018-04-02T11:50:19.690Z,37.06
2018-04-02T11:51:25.468Z,37.04
2018-04-02T11:52:32.041Z,37.08
2018-04-02T11:53:37.812Z,37.01
2018-04-02T11:54:43.652Z,36.78
2018-04-02T11:55:49.462Z,36.66
2018-04-02T11:56:55.244Z,36.65
2018-04-02T11:58:01.040Z,36.47
2018-04-02T11:59:07.001Z,36.14
2018-04-02T12:00:12.763Z,35.98
2018-04-02T12:01:18.558Z,36.01
2018-04-02T12:02:25.114Z,35.97
2018-04-02T12:03:31.724Z,35.85
2018-04-02T12:04:37.728Z,35.84
2018-04-02T12:05:44.323Z,35.83
2018-04-02T12:06:50.115Z,36.22
2018-04-02T12:07:55.886Z,36.40
2018-04-02T12:09:01.661Z,36.38
2018-04-02T12:10:07.794Z,36.23
2018-04-02T12:11:14.045Z,35.72
2018-04-02T12:12:19.864Z,35.67
2018-04-02T12:13:26.183Z,35.80
2018-04-02T12:14:32.166Z,35.88
2018-04-02T12:15:39.480Z,35.70
2018-04-02T12:16:45.399Z,35.86
2018-04-02T12:17:51.359Z,36.13
2018-04-02T12:18:57.157Z,36.24
2018-04-02T12:20:02.963Z,36.26
2018-04-02T12:21:09.435Z,36.29
2018-04-02T12:22:15.303Z,36.07
2018-04-02T12:23:20.984Z,36.16
2018-04-02T12:24:26.835Z,36.13
2018-04-02T12:25:35.157Z,35.67
2018-04-02T12:26:40.908Z,35.68
2018-04-02T12:27:47.633Z,35.69
2018-04-02T12:28:53.621Z,35.86
2018-04-02T12:29:59.394Z,35.82
2018-04-02T12:31:05.937Z,35.96
2018-04-02T12:32:12.713Z,36.17
2018-04-02T12:33:19.248Z,35.97
2018-04-02T12:34:25.121Z,35.90
2018-04-02T12:35:32.081Z,35.99
2018-04-02T12:36:39.627Z,35.83
2018-04-02T12:37:45.389Z,35.47
2018-04-02T12:38:51.165Z,35.65
2018-04-02T12:39:57.773Z,35.72
2018-04-02T12:41:03.770Z,35.72
2018-04-02T12:42:10.384Z,35.74
2018-04-02T12:43:16.195Z,35.89
2018-04-02T12:44:23.142Z,36.36
2018-04-02T12:45:29.129Z,36.51
2018-04-02T12:46:35.113Z,36.78
2018-04-02T12:47:40.892Z,36.99
2018-04-02T12:48:46.655Z,37.14
2018-04-02T12:49:52.420Z,37.24
2018-04-02T12:50:58.910Z,37.24
2018-04-02T12:52:04.483Z,37.17
2018-04-02T12:53:10.265Z,37.26
2018-04-02T12:54:16.076Z,37.33
2018-04-02T12:55:21.837Z,37.08
2018-04-02T12:56:27.638Z,36.87
2018-04-02T12:57:34.278Z,36.65
2018-04-02T12:58:40.054Z,36.74
2018-04-02T12:59:45.848Z,36.64
2018-04-02T13:00:51.630Z,36.58
2018-04-02T13:01:57.435Z,36.91
2018-04-02T13:03:04.748Z,36.92
2018-04-02T13:04:10.947Z,36.99
2018-04-02T13:05:16.403Z,37.04
2018-04-02T13:06:23.773Z,36.97
2018-04-02T13:07:29.560Z,36.77
2018-04-02T13:08:35.335Z,36.72
2018-04-02T13:09:41.102Z,36.71
2018-04-02T13:10:46.896Z,36.88
2018-04-02T13:11:53.605Z,36.90
2018-04-02T13:12:59.412Z,36.94
2018-04-02T13:14:06.644Z,37.00
2018-04-02T13:15:13.244Z,36.87
2018-04-02T13:16:19.124Z,36.72
2018-04-02T13:17:24.978Z,36.42
2018-04-02T13:18:31.707Z,36.35
2018-04-02T13:19:38.455Z,36.19
2018-04-02T13:20:45.121Z,36.12
2018-04-02T13:21:50.979Z,36.31
2018-04-02T13:22:56.881Z,36.47
2018-04-02T13:24:04.401Z,36.59
2018-04-02T13:25:10.234Z,36.70
2018-04-02T13:26:16.262Z,36.72
2018-04-02T13:27:23.051Z,36.90
2018-04-02T13:28:29.947Z,36.93
2018-04-02T13:29:36.562Z,36.83
2018-04-02T13:30:43.250Z,36.64
2018-04-02T13:31:49.715Z,36.60
2018-04-02T13:32:56.305Z,36.63
2018-04-02T13:34:02.230Z,36.58
2018-04-02T13:35:08.053Z,36.44
2018-04-02T13:36:15.806Z,36.20
2018-04-02T13:37:21.578Z,35.96
2018-04-02T13:38:28.203Z,35.99
2018-04-02T13:39:33.974Z,36.08
2018-04-02T13:40:39.777Z,36.21
2018-04-02T13:41:45.564Z,36.17
2018-04-02T13:42:52.126Z,36.09
2018-04-02T13:43:58.649Z,36.10
2018-04-02T13:45:04.418Z,35.90
2018-04-02T13:46:11.322Z,35.75
2018-04-02T13:47:18.210Z,36.13
2018-04-02T13:48:23.973Z,36.42
2018-04-02T13:49:29.748Z,36.58
2018-04-02T13:50:37.277Z,36.60
2018-04-02T13:51:43.140Z,36.61
2018-04-02T13:52:49.604Z,36.62
2018-04-02T13:53:55.447Z,36.72
2018-04-02T13:55:02.497Z,36.79
2018-04-02T13:56:08.481Z,37.01
2018-04-02T13:57:14.774Z,37.00
2018-04-02T13:58:20.722Z,36.73
2018-04-02T13:59:27.281Z,36.44
2018-04-02T14:00:33.283Z,36.12
2018-04-02T14:01:40.104Z,35.98
2018-04-02T14:02:46.151Z,35.78
2018-04-02T14:03:52.188Z,35.84
2018-04-02T14:04:58.671Z,35.80
2018-04-02T14:06:04.529Z,35.61
2018-04-02T14:07:10.529Z,35.50
2018-04-02T14:08:17.337Z,35.57
2018-04-02T14:09:23.577Z,35.59
2018-04-02T14:10:29.158Z,35.56